createdAt,value
2017-09-27T00:00:22.140Z,24.43
2017-09-27T00:02:50.345Z,22.70
2017-09-27T00:05:18.788Z,20.90
2017-09-27T00:07:46.995Z,21.57
2017-09-27T00:10:14.428Z,19.47
2017-09-27T00:12:41.864Z,18.37
2017-09-27T00:15:09.299Z,16.57
2017-09-27T00:17:36.737Z,22.27
2017-09-27T00:20:04.170Z,22.20
2017-09-27T00:22:31.596Z,22.07
2017-09-27T00:24:59.816Z,17.97
2017-09-27T00:27:27.245Z,22.37
2017-09-27T00:29:55.442Z,19.63
2017-09-27T00:32:22.877Z,26.10
2017-09-27T00:34:50.308Z,27.60
2017-09-27T00:37:17.744Z,22.23
2017-09-27T00:39:45.177Z,26.50
2017-09-27T00:42:12.604Z,21.23
2017-09-27T00:44:40.035Z,20.20
2017-09-27T00:47:07.459Z,16.90
2017-09-27T00:49:34.896Z,29.20
2017-09-27T00:52:02.357Z,21.70
2017-09-27T00:54:30.530Z,23.03
2017-09-27T00:56:57.963Z,21.43
2017-09-27T00:59:25.391Z,21.33
2017-09-27T01:01:52.823Z,23.33
2017-09-27T01:04:21.187Z,28.07
2017-09-27T01:06:48.619Z,22.87
2017-09-27T01:09:16.052Z,23.90
2017-09-27T01:11:44.253Z,22.20
2017-09-27T01:14:11.687Z,23.37
2017-09-27T01:16:39.912Z,24.93
2017-09-27T01:19:07.335Z,21.13
2017-09-27T01:21:34.772Z,26.00
2017-09-27T01:24:02.968Z,24.17
2017-09-27T01:26:30.399Z,20.93
2017-09-27T01:28:58.607Z,21.87
2017-09-27T01:31:26.042Z,20.50
2017-09-27T01:33:54.251Z,23.60
2017-09-27T01:36:21.736Z,22.03
2017-09-27T01:38:49.174Z,23.47
2017-09-27T01:41:16.605Z,26.80
2017-09-27T01:43:53.827Z,23.90
2017-09-27T01:46:21.264Z,26.30
2017-09-27T01:48:48.699Z,19.33
2017-09-27T01:51:16.136Z,29.10
2017-09-27T01:53:44.354Z,26.30
2017-09-27T01:56:11.793Z,29.07
2017-09-27T01:58:39.224Z,27.93
2017-09-27T02:01:07.442Z,24.17
2017-09-27T02:03:34.872Z,26.37
2017-09-27T02:06:02.324Z,22.00
2017-09-27T02:08:30.532Z,25.67
2017-09-27T02:10:57.977Z,31.40
2017-09-27T02:13:25.417Z,26.93
2017-09-27T02:15:53.633Z,26.50
2017-09-27T02:18:21.079Z,29.40
2017-09-27T02:20:48.512Z,23.93
2017-09-27T02:23:15.948Z,27.90
2017-09-27T02:25:44.165Z,25.30
2017-09-27T02:28:11.600Z,27.57
2017-09-27T02:30:39.038Z,30.43
2017-09-27T02:33:06.473Z,25.97
2017-09-27T02:35:33.926Z,30.53
2017-09-27T02:38:01.363Z,27.40
2017-09-27T02:40:28.813Z,28.10
2017-09-27T02:42:56.251Z,33.87
2017-09-27T02:45:23.681Z,30.03
2017-09-27T02:47:51.122Z,27.40
2017-09-27T02:50:18.561Z,28.40
2017-09-27T02:52:46.005Z,25.87
2017-09-27T02:55:13.457Z,28.20
2017-09-27T02:57:40.902Z,27.33
2017-09-27T03:00:08.346Z,27.67
2017-09-27T03:02:35.780Z,26.63
2017-09-27T03:05:03.985Z,30.40
2017-09-27T03:07:31.436Z,27.17
2017-09-27T03:09:58.864Z,25.50
2017-09-27T03:12:38.484Z,28.47
2017-09-27T03:15:05.933Z,28.00
2017-09-27T03:17:33.364Z,25.07
2017-09-27T03:20:00.806Z,27.90
2017-09-27T03:22:28.254Z,24.80
2017-09-27T03:24:56.444Z,29.73
2017-09-27T03:27:23.884Z,27.20
2017-09-27T03:29:51.322Z,25.27
2017-09-27T03:32:19.530Z,38.07
2017-09-27T03:34:46.967Z,38.07
2017-09-27T03:37:14.426Z,23.73
2017-09-27T03:39:41.866Z,29.30
2017-09-27T03:42:10.064Z,25.60
2017-09-27T03:44:37.504Z,26.43
2017-09-27T03:47:05.710Z,25.00
2017-09-27T03:49:33.168Z,33.40
2017-09-27T03:52:00.605Z,25.83
2017-09-27T03:54:28.049Z,28.63
2017-09-27T03:56:56.249Z,27.67
2017-09-27T03:59:23.702Z,33.47
2017-09-27T04:01:51.133Z,27.90
2017-09-27T04:04:19.347Z,24.90
2017-09-27T04:06:46.789Z,20.27
2017-09-27T04:09:14.238Z,29.17
2017-09-27T04:11:42.436Z,25.07
2017-09-27T04:14:10.665Z,30.70
2017-09-27T04:16:39.049Z,24.67
2017-09-27T04:19:07.253Z,26.47
2017-09-27T04:21:34.697Z,24.97
2017-09-27T04:24:02.148Z,29.70
2017-09-27T04:26:30.350Z,27.13
2017-09-27T04:28:57.801Z,29.37
2017-09-27T04:31:25.230Z,32.90
2017-09-27T04:33:53.432Z,33.07
2017-09-27T04:36:20.881Z,23.50
2017-09-27T04:38:48.312Z,31.73
2017-09-27T04:41:18.539Z,28.47
2017-09-27T04:43:48.781Z,28.73
2017-09-27T04:46:16.237Z,28.53
2017-09-27T04:48:43.661Z,35.60
2017-09-27T04:51:11.100Z,31.37
2017-09-27T04:53:38.549Z,32.60
2017-09-27T04:56:05.992Z,36.20
2017-09-27T04:58:33.430Z,34.50
2017-09-27T05:01:00.868Z,34.00
2017-09-27T05:03:28.313Z,47.43
2017-09-27T05:05:56.524Z,34.33
2017-09-27T05:08:23.958Z,34.07
2017-09-27T05:10:52.160Z,35.30
2017-09-27T05:13:19.597Z,36.97
2017-09-27T05:15:47.040Z,32.87
2017-09-27T05:18:15.243Z,35.60
2017-09-27T05:20:42.686Z,42.43
2017-09-27T05:23:10.840Z,38.60
2017-09-27T05:25:39.061Z,36.60
2017-09-27T05:28:06.483Z,33.17
2017-09-27T05:30:33.932Z,39.77
2017-09-27T05:33:01.362Z,37.90
2017-09-27T05:35:28.808Z,44.43
2017-09-27T05:37:56.297Z,34.53
2017-09-27T05:40:24.514Z,39.43
2017-09-27T05:42:52.717Z,37.47
2017-09-27T05:45:20.172Z,33.60
2017-09-27T05:47:47.608Z,38.07
2017-09-27T05:50:15.045Z,38.53
2017-09-27T05:52:42.482Z,37.63
2017-09-27T05:55:10.687Z,39.80
2017-09-27T05:57:38.208Z,37.27
2017-09-27T06:00:06.413Z,33.40
2017-09-27T06:02:33.852Z,32.03
2017-09-27T06:05:02.119Z,36.93
2017-09-27T06:07:30.312Z,34.70
2017-09-27T06:09:57.747Z,38.80
2017-09-27T06:12:25.983Z,39.13
2017-09-27T06:14:53.434Z,36.63
2017-09-27T06:17:20.942Z,36.00
2017-09-27T06:19:49.137Z,42.70
2017-09-27T06:22:16.580Z,35.27
2017-09-27T06:24:44.785Z,35.07
2017-09-27T06:27:13.232Z,37.90
2017-09-27T06:29:41.435Z,41.33
2017-09-27T06:32:08.875Z,36.20
2017-09-27T06:34:36.305Z,39.43
2017-09-27T06:37:03.760Z,37.70
2017-09-27T06:39:31.208Z,38.97
2017-09-27T06:41:58.648Z,35.93
2017-09-27T06:44:26.142Z,34.20
2017-09-27T06:46:53.589Z,34.13
2017-09-27T06:49:21.025Z,32.10
2017-09-27T06:51:48.480Z,37.07
2017-09-27T06:54:15.918Z,38.53
2017-09-27T06:56:43.352Z,38.30
2017-09-27T06:59:10.800Z,44.03
2017-09-27T07:01:39.181Z,33.93
2017-09-27T07:04:06.625Z,34.77
2017-09-27T07:06:34.820Z,36.30
2017-09-27T07:09:02.266Z,40.90
2017-09-27T07:11:29.707Z,35.20
2017-09-27T07:14:03.592Z,31.03
2017-09-27T07:16:31.034Z,33.93
2017-09-27T07:18:58.490Z,34.90
2017-09-27T07:21:25.933Z,34.73
2017-09-27T07:23:53.385Z,31.37
2017-09-27T07:26:24.581Z,35.90
2017-09-27T07:28:52.020Z,31.67
2017-09-27T07:31:19.454Z,33.50
2017-09-27T07:33:46.900Z,37.43
2017-09-27T07:36:14.353Z,34.40
2017-09-27T07:38:41.785Z,29.53
2017-09-27T07:41:09.230Z,27.40
2017-09-27T07:43:37.440Z,28.90
2017-09-27T07:46:04.864Z,30.70
2017-09-27T07:48:33.089Z,41.20
2017-09-27T07:51:00.582Z,24.73
2017-09-27T07:53:28.022Z,22.60
2017-09-27T07:55:55.456Z,27.07
2017-09-27T07:58:22.896Z,24.43
2017-09-27T08:00:50.346Z,22.50
2017-09-27T08:03:23.880Z,23.93
2017-09-27T08:05:51.330Z,20.53
2017-09-27T08:08:18.762Z,24.90
2017-09-27T08:10:46.221Z,21.10
2017-09-27T08:13:13.652Z,22.40
2017-09-27T08:15:41.863Z,25.40
2017-09-27T08:18:09.304Z,21.23
2017-09-27T08:20:36.752Z,19.27
2017-09-27T08:23:04.185Z,22.90
2017-09-27T08:25:31.632Z,20.03
2017-09-27T08:27:59.064Z,21.70
2017-09-27T08:30:26.574Z,20.33
2017-09-27T08:32:54.782Z,18.67
2017-09-27T08:35:22.233Z,21.37
2017-09-27T08:37:49.664Z,17.20
2017-09-27T08:40:17.870Z,22.67
2017-09-27T08:42:45.307Z,16.17
2017-09-27T08:45:12.750Z,18.20
2017-09-27T08:47:40.955Z,18.30
2017-09-27T08:50:08.393Z,18.30
2017-09-27T08:52:35.832Z,20.40
2017-09-27T08:55:04.046Z,18.93
2017-09-27T08:57:31.503Z,21.70
2017-09-27T08:59:58.955Z,19.47
2017-09-27T09:02:26.401Z,23.10
2017-09-27T09:04:53.829Z,20.53
2017-09-27T09:07:22.053Z,23.00
2017-09-27T09:09:49.501Z,24.83
2017-09-27T09:12:16.941Z,19.10
2017-09-27T09:14:44.377Z,22.37
2017-09-27T09:17:12.595Z,20.80
2017-09-27T09:19:40.030Z,21.63
2017-09-27T09:22:07.469Z,21.37
2017-09-27T09:24:35.671Z,21.80
2017-09-27T09:27:03.125Z,18.60
2017-09-27T09:29:30.556Z,22.87
2017-09-27T09:31:58.773Z,19.53
2017-09-27T09:34:26.213Z,23.27
2017-09-27T09:36:53.657Z,20.03
2017-09-27T09:39:21.893Z,20.70
2017-09-27T09:41:49.314Z,19.40
2017-09-27T09:44:18.804Z,25.07
2017-09-27T09:46:46.253Z,21.97
2017-09-27T09:49:13.689Z,21.03
2017-09-27T09:51:41.896Z,25.43
2017-09-27T09:54:10.169Z,18.37
2017-09-27T09:56:37.603Z,17.50
2017-09-27T09:59:05.809Z,20.90
2017-09-27T10:01:33.252Z,21.63
2017-09-27T10:04:00.692Z,19.80
2017-09-27T10:06:28.902Z,22.73
2017-09-27T10:08:56.346Z,18.63
2017-09-27T10:11:23.776Z,25.33
2017-09-27T10:13:51.991Z,19.13
2017-09-27T10:16:19.469Z,19.87
2017-09-27T10:18:46.926Z,19.57
2017-09-27T10:21:14.357Z,23.00
2017-09-27T10:23:41.804Z,23.07
2017-09-27T10:26:09.246Z,20.20
2017-09-27T10:28:37.456Z,20.90
2017-09-27T10:31:04.897Z,28.77
2017-09-27T10:33:32.349Z,19.57
2017-09-27T10:36:01.832Z,22.50
2017-09-27T10:38:30.128Z,19.53
2017-09-27T10:40:57.557Z,18.33
2017-09-27T10:43:26.793Z,21.87
2017-09-27T10:45:54.230Z,24.20
2017-09-27T10:48:22.438Z,20.77
2017-09-27T10:50:49.898Z,25.80
2017-09-27T10:53:34.032Z,21.37
2017-09-27T10:56:01.465Z,20.53
2017-09-27T10:58:29.686Z,21.17
2017-09-27T11:00:57.127Z,19.27
2017-09-27T11:03:24.565Z,23.70
2017-09-27T11:05:52.008Z,21.30
2017-09-27T11:08:19.513Z,16.03
2017-09-27T11:10:46.931Z,22.30
2017-09-27T11:13:15.141Z,23.13
2017-09-27T11:15:43.350Z,25.27
2017-09-27T11:18:10.781Z,23.90
2017-09-27T11:20:38.236Z,22.57
2017-09-27T11:23:05.669Z,28.77
2017-09-27T11:25:33.154Z,20.73
2017-09-27T11:28:05.365Z,20.60
2017-09-27T11:30:33.571Z,24.03
2017-09-27T11:33:01.017Z,27.53
2017-09-27T11:35:28.448Z,26.70
2017-09-27T11:37:56.657Z,31.53
2017-09-27T11:40:24.132Z,28.07
2017-09-27T11:42:51.574Z,27.87
2017-09-27T11:45:19.016Z,35.73
2017-09-27T11:47:46.516Z,34.17
2017-09-27T11:50:21.157Z,28.90
2017-09-27T11:52:48.596Z,25.30
2017-09-27T11:55:16.049Z,31.80
2017-09-27T11:57:43.485Z,31.10
2017-09-27T12:00:10.922Z,33.30
2017-09-27T12:02:39.133Z,36.87
2017-09-27T12:05:06.574Z,34.40
2017-09-27T12:07:34.019Z,27.60
2017-09-27T12:10:01.462Z,32.20
2017-09-27T12:12:29.674Z,31.80
2017-09-27T12:15:09.193Z,37.37
2017-09-27T12:17:36.676Z,35.67
2017-09-27T12:20:04.105Z,32.80
2017-09-27T12:22:31.596Z,31.63
2017-09-27T12:24:59.028Z,20.23
2017-09-27T12:27:26.473Z,31.60
2017-09-27T12:29:54.673Z,25.10
2017-09-27T12:32:22.120Z,27.33
2017-09-27T12:34:49.562Z,33.47
2017-09-27T12:37:17.012Z,32.63
2017-09-27T12:39:45.222Z,29.40
2017-09-27T12:42:12.740Z,30.60
2017-09-27T12:44:40.185Z,37.30
2017-09-27T12:47:07.640Z,29.93
2017-09-27T12:49:35.085Z,40.90
2017-09-27T12:52:02.593Z,35.63
2017-09-27T12:54:30.021Z,30.07
2017-09-27T12:56:58.241Z,38.87
2017-09-27T12:59:26.435Z,31.67
2017-09-27T13:01:53.920Z,33.10
2017-09-27T13:04:21.366Z,27.87
2017-09-27T13:06:48.810Z,32.17
2017-09-27T13:09:16.293Z,29.40
2017-09-27T13:11:43.737Z,28.70
2017-09-27T13:14:11.185Z,26.70
2017-09-27T13:16:38.633Z,30.10
2017-09-27T13:19:06.203Z,26.97
2017-09-27T13:21:33.645Z,30.43
2017-09-27T13:24:01.089Z,25.47
2017-09-27T13:26:28.533Z,19.87
2017-09-27T13:28:55.992Z,27.37
2017-09-27T13:31:23.409Z,21.67
2017-09-27T13:33:50.865Z,21.83
2017-09-27T13:36:18.313Z,30.83
2017-09-27T13:38:45.922Z,28.03
2017-09-27T13:41:13.341Z,32.90
2017-09-27T13:43:40.781Z,29.07
2017-09-27T13:46:08.214Z,37.43
2017-09-27T13:48:35.661Z,33.13
2017-09-27T13:51:03.111Z,29.10
2017-09-27T13:53:30.549Z,25.27
2017-09-27T13:55:58.049Z,26.63
2017-09-27T13:58:25.511Z,29.93
2017-09-27T14:00:53.005Z,29.67
2017-09-27T14:03:20.441Z,21.40
2017-09-27T14:05:47.914Z,31.23
2017-09-27T14:08:16.120Z,24.53
2017-09-27T14:10:43.569Z,26.23
2017-09-27T14:13:11.013Z,23.03
2017-09-27T14:15:39.233Z,23.30
2017-09-27T14:18:06.686Z,20.87
2017-09-27T14:20:34.145Z,33.77
2017-09-27T14:23:03.503Z,30.80
2017-09-27T14:25:31.719Z,34.23
2017-09-27T14:27:59.173Z,23.83
2017-09-27T14:30:26.732Z,29.13
2017-09-27T14:32:54.190Z,23.87
2017-09-27T14:35:21.651Z,19.90
2017-09-27T14:37:49.087Z,23.37
2017-09-27T14:40:16.525Z,29.37
2017-09-27T14:42:44.725Z,25.70
2017-09-27T14:45:12.940Z,22.50
2017-09-27T14:47:40.374Z,24.23
2017-09-27T14:50:07.836Z,17.60
2017-09-27T14:52:35.277Z,26.87
2017-09-27T14:55:02.742Z,28.50
2017-09-27T14:57:30.179Z,24.80
2017-09-27T14:59:57.615Z,26.20
2017-09-27T15:02:25.840Z,21.33
2017-09-27T15:04:54.268Z,23.97
2017-09-27T15:07:22.482Z,23.87
2017-09-27T15:09:49.913Z,19.53
2017-09-27T15:12:17.357Z,21.30
2017-09-27T15:14:45.564Z,22.40
2017-09-27T15:17:13.004Z,19.23
2017-09-27T15:19:40.442Z,18.20
2017-09-27T15:22:08.706Z,16.20
2017-09-27T15:24:36.139Z,14.00
2017-09-27T15:27:03.590Z,15.30
2017-09-27T15:29:36.213Z,15.50
2017-09-27T15:32:04.427Z,14.23
2017-09-27T15:34:31.861Z,14.60
2017-09-27T15:36:59.315Z,14.33
2017-09-27T15:39:26.750Z,15.00
2017-09-27T15:41:54.189Z,12.90
2017-09-27T15:44:21.642Z,12.63
2017-09-27T15:46:49.086Z,10.77
2017-09-27T15:49:16.526Z,13.17
2017-09-27T15:51:43.971Z,11.93
2017-09-27T15:54:11.397Z,11.40
2017-09-27T15:56:38.844Z,18.53
2017-09-27T15:59:06.318Z,15.50
2017-09-27T16:01:33.757Z,14.20
2017-09-27T16:04:01.198Z,13.27
2017-09-27T16:06:28.656Z,12.20
2017-09-27T16:08:56.090Z,13.20
2017-09-27T16:11:23.531Z,12.03
2017-09-27T16:13:50.968Z,16.47
2017-09-27T16:16:18.401Z,15.43
2017-09-27T16:18:45.840Z,15.40
2017-09-27T16:21:13.298Z,12.47
2017-09-27T16:23:40.777Z,21.07
2017-09-27T16:26:08.981Z,13.70
2017-09-27T16:28:36.436Z,18.87
2017-09-27T16:31:03.861Z,15.50
2017-09-27T16:33:31.302Z,12.20
2017-09-27T16:35:58.738Z,13.90
2017-09-27T16:38:26.181Z,13.93
2017-09-27T16:40:53.624Z,15.37
2017-09-27T16:43:21.209Z,13.70
2017-09-27T16:45:48.654Z,19.70
2017-09-27T16:48:16.112Z,15.97
2017-09-27T16:50:43.533Z,15.67
2017-09-27T16:53:11.744Z,18.07
2017-09-27T16:55:39.187Z,19.70
2017-09-27T16:58:06.626Z,15.03
2017-09-27T17:00:34.829Z,22.13
2017-09-27T17:03:02.268Z,14.97
2017-09-27T17:05:29.705Z,14.80
2017-09-27T17:07:57.905Z,13.63
2017-09-27T17:10:25.362Z,17.40
2017-09-27T17:12:52.789Z,15.73
2017-09-27T17:15:21.011Z,15.90
2017-09-27T17:17:48.441Z,17.17
2017-09-27T17:20:15.882Z,14.30
2017-09-27T17:22:44.082Z,17.10
2017-09-27T17:25:11.533Z,15.83
2017-09-27T17:27:38.995Z,20.50
2017-09-27T17:30:11.677Z,20.30
2017-09-27T17:32:45.326Z,20.90
2017-09-27T17:35:12.771Z,17.10
2017-09-27T17:37:40.208Z,17.30
2017-09-27T17:40:07.644Z,20.10
2017-09-27T17:42:35.082Z,17.20
2017-09-27T17:45:03.284Z,24.43
2017-09-27T17:47:30.722Z,21.13
2017-09-27T17:50:01.665Z,19.53
2017-09-27T17:52:29.097Z,23.80
2017-09-27T17:54:56.533Z,18.10
2017-09-27T17:57:23.969Z,21.13
2017-09-27T17:59:51.466Z,21.30
2017-09-27T18:02:18.910Z,18.40
2017-09-27T18:05:07.026Z,19.40
2017-09-27T18:07:39.991Z,22.50
2017-09-27T18:13:15.413Z,23.17
2017-09-27T18:15:55.484Z,17.03
2017-09-27T18:18:29.457Z,22.83
2017-09-27T18:20:56.906Z,22.30
2017-09-27T18:23:24.402Z,17.90
2017-09-27T18:25:52.619Z,20.40
2017-09-27T18:28:20.055Z,20.97
2017-09-27T18:30:48.269Z,19.70
2017-09-27T18:33:21.473Z,22.37
2017-09-27T18:35:48.922Z,20.77
2017-09-27T18:38:16.379Z,21.57
2017-09-27T18:40:53.800Z,22.77
2017-09-27T18:43:21.232Z,20.67
2017-09-27T18:45:48.676Z,23.00
2017-09-27T18:48:16.126Z,22.57
2017-09-27T18:50:43.557Z,21.03
2017-09-27T18:53:10.996Z,21.50
2017-09-27T18:55:46.105Z,19.83
2017-09-27T18:58:13.541Z,21.53
2017-09-27T19:00:40.985Z,22.40
2017-09-27T19:03:09.434Z,21.60
2017-09-27T19:05:44.938Z,20.60
2017-09-27T19:08:12.380Z,20.17
2017-09-27T19:10:39.829Z,21.07
2017-09-27T19:13:07.309Z,23.03
2017-09-27T19:15:34.793Z,18.63
2017-09-27T19:18:03.015Z,22.40
2017-09-27T19:20:30.449Z,27.23
2017-09-27T19:22:57.897Z,20.87
2017-09-27T19:25:29.749Z,20.40
2017-09-27T19:27:57.963Z,22.00
2017-09-27T19:30:25.388Z,18.47
2017-09-27T19:32:52.835Z,19.17
2017-09-27T19:35:21.033Z,23.20
2017-09-27T19:37:48.478Z,18.70
2017-09-27T19:40:15.926Z,18.87
2017-09-27T19:42:44.185Z,20.80
2017-09-27T19:45:11.653Z,21.90
2017-09-27T19:47:39.886Z,27.03
2017-09-27T19:50:07.334Z,23.60
2017-09-27T19:52:34.769Z,26.33
2017-09-27T19:55:02.222Z,19.20
2017-09-27T19:57:29.655Z,24.90
2017-09-27T20:00:08.757Z,24.43
2017-09-27T20:02:36.209Z,24.80
2017-09-27T20:05:07.504Z,29.63
2017-09-27T20:07:35.703Z,24.17
2017-09-27T20:10:03.150Z,23.87
2017-09-27T20:12:30.590Z,22.57
2017-09-27T20:15:09.290Z,23.13
2017-09-27T20:17:36.752Z,26.80
2017-09-27T20:20:04.204Z,22.40
2017-09-27T20:22:31.687Z,20.93
2017-09-27T20:25:14.598Z,24.37
2017-09-27T20:27:42.804Z,23.73
2017-09-27T20:30:10.256Z,23.23
2017-09-27T20:32:41.166Z,25.53
2017-09-27T20:35:09.409Z,23.80
2017-09-27T20:37:44.280Z,30.53
2017-09-27T20:40:11.698Z,25.27
2017-09-27T20:42:39.133Z,27.13
2017-09-27T20:45:06.581Z,27.93
2017-09-27T20:47:34.021Z,25.40
2017-09-27T20:50:01.476Z,25.40
2017-09-27T20:52:52.829Z,27.07
2017-09-27T20:55:20.273Z,29.37
2017-09-27T20:57:47.727Z,30.27
2017-09-27T21:00:25.361Z,30.53
2017-09-27T21:02:52.800Z,22.77
2017-09-27T21:05:20.247Z,30.17
2017-09-27T21:07:47.692Z,29.20
2017-09-27T21:10:15.163Z,28.27
2017-09-27T21:12:42.594Z,30.67
2017-09-27T21:15:10.033Z,26.77
2017-09-27T21:17:38.237Z,32.00
2017-09-27T21:20:05.681Z,29.60
2017-09-27T21:22:33.125Z,26.77
2017-09-27T21:25:00.574Z,28.13
2017-09-27T21:27:28.021Z,27.60
2017-09-27T21:29:56.224Z,33.73
2017-09-27T21:32:23.662Z,24.07
2017-09-27T21:34:52.854Z,29.57
2017-09-27T21:37:21.064Z,29.77
2017-09-27T21:39:48.497Z,30.33
2017-09-27T21:42:15.949Z,31.40
2017-09-27T21:44:44.152Z,28.13
2017-09-27T21:47:11.725Z,28.20
2017-09-27T21:49:39.165Z,32.07
2017-09-27T21:52:06.632Z,29.07
2017-09-27T21:54:34.076Z,26.57
2017-09-27T21:57:01.516Z,29.07
2017-09-27T21:59:29.715Z,30.80
2017-09-27T22:02:09.571Z,33.20
2017-09-27T22:04:37.005Z,29.07
2017-09-27T22:07:04.449Z,29.33
2017-09-27T22:09:32.645Z,29.30
2017-09-27T22:12:00.107Z,26.37
2017-09-27T22:14:27.536Z,30.83
2017-09-27T22:16:55.744Z,30.40
2017-09-27T22:19:23.195Z,32.33
2017-09-27T22:21:50.628Z,32.67
2017-09-27T22:24:18.835Z,29.00
2017-09-27T22:26:46.309Z,32.43
2017-09-27T22:29:31.053Z,28.83
2017-09-27T22:31:58.499Z,33.23
2017-09-27T22:34:25.929Z,27.10
2017-09-27T22:36:54.153Z,30.53
2017-09-27T22:39:21.588Z,29.03
2017-09-27T22:41:49.029Z,30.93
2017-09-27T22:44:16.477Z,33.00
2017-09-27T22:46:44.688Z,29.70
2017-09-27T22:49:12.128Z,25.93
2017-09-27T22:51:39.596Z,31.50
2017-09-27T22:54:07.024Z,27.20
2017-09-27T22:56:35.221Z,34.40
2017-09-27T22:59:02.665Z,29.07
2017-09-27T23:01:30.864Z,30.30
2017-09-27T23:03:58.327Z,31.43
2017-09-27T23:06:25.741Z,28.00
2017-09-27T23:08:53.956Z,33.53
2017-09-27T23:11:21.389Z,38.13
2017-09-27T23:13:48.824Z,31.40
2017-09-27T23:16:17.046Z,36.73
2017-09-27T23:18:44.485Z,40.13
2017-09-27T23:21:11.916Z,34.27
2017-09-27T23:23:40.123Z,40.30
2017-09-27T23:26:07.577Z,37.80
2017-09-27T23:28:35.015Z,39.93
2017-09-27T23:31:03.219Z,35.67
2017-09-27T23:33:30.667Z,36.33
2017-09-27T23:35:58.100Z,30.70
2017-09-27T23:38:26.306Z,34.93
2017-09-27T23:40:53.749Z,28.17
2017-09-27T23:43:21.182Z,32.30
2017-09-27T23:45:49.393Z,31.67
2017-09-27T23:48:16.853Z,46.70
2017-09-27T23:50:44.289Z,39.00
2017-09-27T23:53:11.713Z,37.80
2017-09-27T23:55:39.149Z,36.43
2017-09-27T23:58:06.594Z,41.90
